Sugar Bush, Minnesota
Current Conditions -  °F | °C
As of 2:12 PM on Friday 28 Nov 2014 (Local Time) from KBJI Reporting Station
Light Snow Light Snow  
Wind Chill: -16°   Ceiling: 3600
Heat Index: -11°   Visibility: 10mi
Dew Point: -14°   Wind: 7mph
Humidity: 79%   Direction: 90°E
Pressure: 29.81"   Gusts: NA
Location:  47.5271°N, 94.7611°W
Report Text: KBJI 282012Z AUTO 09006KT 10SM -SN SCT016 OVC036 M11/M14 A2981 RMK AO2 T11061136
Loading
Personal Weather Stations






























Interactive Weather Map New forecast layout! Learn more

10-Day Weather Forecast

Advertisements
Track Severe Weather on mobile